createdAt,value
2023-04-02T00:01:40.678Z,13.91
2023-04-02T00:04:16.473Z,13.84
2023-04-02T00:06:46.857Z,13.78
2023-04-02T00:09:14.144Z,13.84
2023-04-02T00:11:45.015Z,13.70
2023-04-02T00:14:24.474Z,13.68
2023-04-02T00:16:53.918Z,13.66
2023-04-02T00:19:29.837Z,13.66
2023-04-02T00:21:58.905Z,13.51
2023-04-02T00:24:26.343Z,13.44
2023-04-02T00:26:54.253Z,13.46
2023-04-02T00:29:22.096Z,13.57
2023-04-02T00:31:53.007Z,13.60
2023-04-02T00:34:23.857Z,13.51
2023-04-02T00:36:52.530Z,13.49
2023-04-02T00:39:27.263Z,13.43
2023-04-02T00:42:05.418Z,13.45
2023-04-02T00:44:37.945Z,13.38
2023-04-02T00:47:22.740Z,13.31
2023-04-02T00:49:56.962Z,13.40
2023-04-02T00:52:28.378Z,13.34
2023-04-02T00:55:13.883Z,13.36
2023-04-02T00:57:45.663Z,13.43
2023-04-02T01:00:21.736Z,13.39
2023-04-02T01:03:17.106Z,13.23
2023-04-02T01:05:56.023Z,13.13
2023-04-02T01:08:38.318Z,13.00
2023-04-02T01:11:27.202Z,12.88
2023-04-02T01:14:06.673Z,12.87
2023-04-02T01:16:50.524Z,12.82
2023-04-02T01:20:01.676Z,12.80
2023-04-02T01:22:38.226Z,12.71
2023-04-02T01:25:06.712Z,12.61
2023-04-02T01:27:49.881Z,12.52
2023-04-02T01:30:18.384Z,12.42
2023-04-02T01:32:46.004Z,12.48
2023-04-02T01:35:14.304Z,12.55
2023-04-02T01:37:50.920Z,12.41
2023-04-02T01:40:45.739Z,12.39
2023-04-02T01:43:20.601Z,12.30
2023-04-02T01:45:48.222Z,12.30
2023-04-02T01:48:24.590Z,12.32
2023-04-02T01:50:55.259Z,12.48
2023-04-02T01:53:26.952Z,12.46
2023-04-02T01:55:56.792Z,12.49
2023-04-02T01:58:27.212Z,12.50
2023-04-02T02:01:02.226Z,12.47
2023-04-02T02:03:31.293Z,12.46
2023-04-02T02:05:59.931Z,12.37
2023-04-02T02:08:45.095Z,12.30
2023-04-02T02:11:16.429Z,12.26
2023-04-02T02:14:15.054Z,12.20
2023-04-02T02:16:43.650Z,12.12
2023-04-02T02:19:28.904Z,12.11
2023-04-02T02:22:31.048Z,12.08
2023-04-02T02:25:05.379Z,11.93
2023-04-02T02:27:53.592Z,11.94
2023-04-02T02:30:35.023Z,11.95
2023-04-02T02:33:15.312Z,11.81
2023-04-02T02:35:50.956Z,11.70
2023-04-02T02:38:32.784Z,11.65
2023-04-02T02:41:37.096Z,11.70
2023-04-02T02:44:08.136Z,11.55
2023-04-02T02:46:39.266Z,11.51
2023-04-02T02:49:18.698Z,11.69
2023-04-02T02:52:03.551Z,11.68
2023-04-02T02:54:40.707Z,11.70
2023-04-02T02:57:13.528Z,11.84
2023-04-02T02:59:43.047Z,11.96
2023-04-02T03:02:11.026Z,11.95
2023-04-02T03:04:38.677Z,12.08
2023-04-02T03:07:16.197Z,12.09
2023-04-02T03:10:04.182Z,12.20
2023-04-02T03:12:43.938Z,12.21
2023-04-02T03:15:22.187Z,12.21
2023-04-02T03:18:02.415Z,12.24
2023-04-02T03:20:53.764Z,12.17
2023-04-02T03:23:33.077Z,12.18
2023-04-02T03:26:25.156Z,12.06
2023-04-02T03:29:08.484Z,12.07
2023-04-02T03:31:41.566Z,11.77
2023-04-02T03:34:17.971Z,11.89
2023-04-02T03:36:57.983Z,11.94
2023-04-02T03:39:41.153Z,11.95
2023-04-02T03:42:26.157Z,11.85
2023-04-02T03:45:00.350Z,11.88
2023-04-02T03:47:42.544Z,11.73
2023-04-02T03:50:34.511Z,11.90
2023-04-02T03:53:04.520Z,11.69
2023-04-02T03:55:37.239Z,11.80
2023-04-02T03:58:15.187Z,11.69
2023-04-02T04:00:50.341Z,11.80
2023-04-02T04:03:24.900Z,11.76
2023-04-02T04:06:02.272Z,11.91
2023-04-02T04:08:54.862Z,11.81
2023-04-02T04:11:35.669Z,11.86
2023-04-02T04:14:31.061Z,11.75
2023-04-02T04:17:14.004Z,11.71
2023-04-02T04:20:00.189Z,11.81
2023-04-02T04:22:33.896Z,11.68
2023-04-02T04:25:30.703Z,11.72
2023-04-02T04:28:29.379Z,11.71
2023-04-02T04:31:10.366Z,11.61
2023-04-02T04:33:45.635Z,11.68
2023-04-02T04:36:28.997Z,11.84
2023-04-02T04:39:14.654Z,11.76
2023-04-02T04:41:48.530Z,11.73
2023-04-02T04:44:28.820Z,11.84
2023-04-02T04:46:58.193Z,11.71
2023-04-02T04:49:32.860Z,11.52
2023-04-02T04:52:14.291Z,11.47
2023-04-02T04:54:42.490Z,11.29
2023-04-02T04:57:41.504Z,11.33
2023-04-02T05:00:19.768Z,11.38
2023-04-02T05:02:54.338Z,11.39
2023-04-02T05:05:31.075Z,11.27
2023-04-02T05:08:11.203Z,11.43
2023-04-02T05:10:57.500Z,11.46
2023-04-02T05:13:34.386Z,11.39
2023-04-02T05:16:14.661Z,11.49
2023-04-02T05:18:50.809Z,11.49
2023-04-02T05:21:27.819Z,11.68
2023-04-02T05:24:19.913Z,11.66
2023-04-02T05:26:50.931Z,11.71
2023-04-02T05:29:24.998Z,11.73
2023-04-02T05:32:08.799Z,11.73
2023-04-02T05:34:40.855Z,11.68
2023-04-02T05:37:19.243Z,11.71
2023-04-02T05:39:54.491Z,11.78
2023-04-02T05:42:31.881Z,11.82
2023-04-02T05:45:13.440Z,11.75
2023-04-02T05:47:45.933Z,11.61
2023-04-02T05:50:21.960Z,11.75
2023-04-02T05:52:56.962Z,11.74
2023-04-02T05:55:35.208Z,11.78
2023-04-02T05:58:33.844Z,11.88
2023-04-02T06:01:08.671Z,11.81
2023-04-02T06:03:50.629Z,11.83
2023-04-02T06:06:42.628Z,11.94
2023-04-02T06:09:19.756Z,11.87
2023-04-02T06:12:20.076Z,11.89
2023-04-02T06:14:48.366Z,11.88
2023-04-02T06:17:19.278Z,11.84
2023-04-02T06:19:48.215Z,11.81
2023-04-02T06:22:40.348Z,11.78
2023-04-02T06:25:22.273Z,11.87
2023-04-02T06:27:52.675Z,11.90
2023-04-02T06:31:02.603Z,11.95
2023-04-02T06:33:36.535Z,12.00
2023-04-02T06:36:06.921Z,12.03
2023-04-02T06:38:37.871Z,12.02
2023-04-02T06:41:19.140Z,12.09
2023-04-02T06:44:22.864Z,12.19
2023-04-02T06:47:26.393Z,12.12
2023-04-02T06:50:11.927Z,12.23
2023-04-02T06:53:24.211Z,12.18
2023-04-02T06:56:05.124Z,12.27
2023-04-02T06:58:33.861Z,11.94
2023-04-02T07:01:02.106Z,11.60
2023-04-02T07:03:41.880Z,11.44
2023-04-02T07:06:22.377Z,11.38
2023-04-02T07:08:52.236Z,11.45
2023-04-02T07:11:22.350Z,11.50
2023-04-02T07:13:52.584Z,11.59
2023-04-02T07:16:25.452Z,11.68
2023-04-02T07:18:55.526Z,11.76
2023-04-02T07:21:23.579Z,11.92
2023-04-02T07:23:50.918Z,11.93
2023-04-02T07:26:22.479Z,12.07
2023-04-02T07:28:49.830Z,12.15
2023-04-02T07:31:24.326Z,12.10
2023-04-02T07:34:00.814Z,12.23
2023-04-02T07:36:29.656Z,12.21
2023-04-02T07:38:57.322Z,12.17
2023-04-02T07:41:26.574Z,12.24
2023-04-02T07:43:54.688Z,12.15
2023-04-02T07:46:22.478Z,12.16
2023-04-02T07:48:50.237Z,12.24
2023-04-02T07:51:26.178Z,12.20
2023-04-02T07:53:57.419Z,12.23
2023-04-02T07:56:25.942Z,12.29
2023-04-02T07:58:53.569Z,12.31
2023-04-02T08:01:26.615Z,12.40
2023-04-02T08:03:55.696Z,12.44
2023-04-02T08:06:24.704Z,12.40
2023-04-02T08:08:52.065Z,12.44
2023-04-02T08:11:20.103Z,12.44
2023-04-02T08:13:47.909Z,12.52
2023-04-02T08:16:16.128Z,12.57
2023-04-02T08:18:43.735Z,12.63
2023-04-02T08:21:11.333Z,12.66
2023-04-02T08:23:38.702Z,12.81
2023-04-02T08:26:06.554Z,12.84
2023-04-02T08:28:34.300Z,12.86
2023-04-02T08:31:02.259Z,12.84
2023-04-02T08:33:29.880Z,12.82
2023-04-02T08:35:57.291Z,12.92
2023-04-02T08:38:25.851Z,12.81
2023-04-02T08:40:56.737Z,12.98
2023-04-02T08:43:40.916Z,12.90
2023-04-02T08:46:21.156Z,12.82
2023-04-02T08:48:55.485Z,12.68
2023-04-02T08:51:26.998Z,12.41
2023-04-02T08:53:59.897Z,12.20
2023-04-02T08:56:44.393Z,12.15
2023-04-02T08:59:19.058Z,11.95
2023-04-02T09:02:14.973Z,11.94
2023-04-02T09:04:43.538Z,11.84
2023-04-02T09:07:14.389Z,11.75
2023-04-02T09:09:41.922Z,11.69
2023-04-02T09:12:27.647Z,11.72
2023-04-02T09:15:18.528Z,11.82
2023-04-02T09:17:53.687Z,11.78
2023-04-02T09:20:26.674Z,11.69
2023-04-02T09:22:55.453Z,11.81
2023-04-02T09:25:34.206Z,11.79
2023-04-02T09:28:04.623Z,11.74
2023-04-02T09:30:31.977Z,11.70
2023-04-02T09:33:02.661Z,11.68
2023-04-02T09:35:32.951Z,11.65
2023-04-02T09:38:21.826Z,11.74
2023-04-02T09:41:03.800Z,11.75
2023-04-02T09:43:33.679Z,11.88
2023-04-02T09:46:03.020Z,11.91
2023-04-02T09:48:40.790Z,11.76
2023-04-02T09:51:14.588Z,11.84
2023-04-02T09:54:05.016Z,11.99
2023-04-02T09:56:40.627Z,12.09
2023-04-02T09:59:16.171Z,12.20
2023-04-02T10:01:55.988Z,12.16
2023-04-02T10:04:36.470Z,12.15
2023-04-02T10:07:06.521Z,12.10
2023-04-02T10:09:38.609Z,12.15
2023-04-02T10:12:12.419Z,12.26
2023-04-02T10:14:48.467Z,12.14
2023-04-02T10:17:23.698Z,12.31
2023-04-02T10:19:56.120Z,12.46
2023-04-02T10:22:23.670Z,12.60
2023-04-02T10:24:51.689Z,12.81
2023-04-02T10:27:39.782Z,13.11
2023-04-02T10:30:19.270Z,13.40
2023-04-02T10:32:55.732Z,13.71
2023-04-02T10:35:55.765Z,13.90
2023-04-02T10:38:42.614Z,13.84
2023-04-02T10:41:21.291Z,14.00
2023-04-02T10:44:09.453Z,13.96
2023-04-02T10:47:11.976Z,14.13
2023-04-02T10:50:01.946Z,14.53
2023-04-02T10:52:33.219Z,14.77
2023-04-02T10:55:29.523Z,14.73
2023-04-02T10:58:05.592Z,14.86
2023-04-02T11:00:36.277Z,14.68
2023-04-02T11:03:18.551Z,14.86
2023-04-02T11:05:54.257Z,14.80
2023-04-02T11:08:42.069Z,15.01
2023-04-02T11:11:18.140Z,15.05
2023-04-02T11:13:45.490Z,15.05
2023-04-02T11:16:16.556Z,15.12
2023-04-02T11:19:18.809Z,15.11
2023-04-02T11:22:00.212Z,15.39
2023-04-02T11:24:33.989Z,15.63
2023-04-02T11:27:10.553Z,15.75
2023-04-02T11:29:58.208Z,15.94
2023-04-02T11:32:31.271Z,15.76
2023-04-02T11:35:07.159Z,15.74
2023-04-02T11:37:44.683Z,15.68
2023-04-02T11:40:12.269Z,15.64
2023-04-02T11:42:42.146Z,15.56
2023-04-02T11:45:24.388Z,15.21
2023-04-02T11:48:00.930Z,14.33
2023-04-02T11:50:34.699Z,14.10
2023-04-02T11:53:05.173Z,13.72
2023-04-02T11:55:35.161Z,13.64
2023-04-02T11:58:34.086Z,12.76
2023-04-02T12:01:08.007Z,12.18
2023-04-02T12:03:47.632Z,11.79
2023-04-02T12:06:30.060Z,11.64
2023-04-02T12:09:27.452Z,11.59
2023-04-02T12:11:58.277Z,11.47
2023-04-02T12:14:37.800Z,11.49
2023-04-02T12:17:16.149Z,11.48
2023-04-02T12:19:49.073Z,11.59
2023-04-02T12:22:21.744Z,11.73
2023-04-02T12:24:50.225Z,11.84
2023-04-02T12:27:22.597Z,11.86
2023-04-02T12:29:52.317Z,11.95
2023-04-02T12:32:30.420Z,12.02
2023-04-02T12:35:06.278Z,12.08
2023-04-02T12:37:33.788Z,12.16
2023-04-02T12:40:07.545Z,12.22
2023-04-02T12:42:37.119Z,12.31
2023-04-02T12:45:07.047Z,12.49
2023-04-02T12:47:34.529Z,12.55
2023-04-02T12:50:02.541Z,12.59
2023-04-02T12:52:30.618Z,12.64
2023-04-02T12:55:00.580Z,12.74
2023-04-02T12:57:28.967Z,12.86
2023-04-02T12:59:58.252Z,12.94
2023-04-02T13:02:30.965Z,12.92
2023-04-02T13:05:01.450Z,13.16
2023-04-02T13:10:26.102Z,13.22
2023-04-02T13:12:58.698Z,13.32
2023-04-02T13:15:34.451Z,13.42
2023-04-02T13:18:06.194Z,13.58
2023-04-02T13:20:41.581Z,13.69
2023-04-02T13:23:28.341Z,13.74
2023-04-02T13:25:58.527Z,13.82
2023-04-02T13:28:26.919Z,13.87
2023-04-02T13:30:55.488Z,13.97
2023-04-02T13:33:23.148Z,13.93
2023-04-02T13:35:50.846Z,13.90
2023-04-02T13:38:18.930Z,14.03
2023-04-02T13:40:46.684Z,14.16
2023-04-02T13:43:20.750Z,14.25
2023-04-02T13:45:52.090Z,14.44
2023-04-02T13:48:19.661Z,14.58
2023-04-02T13:50:47.667Z,14.66
2023-04-02T13:53:31.549Z,14.71
2023-04-02T13:56:00.303Z,14.75
2023-04-02T13:58:28.667Z,14.75
2023-04-02T14:00:56.888Z,14.77
2023-04-02T14:03:24.521Z,14.84
2023-04-02T14:06:19.405Z,14.86
2023-04-02T14:09:23.259Z,14.91
2023-04-02T14:11:57.005Z,15.02
2023-04-02T14:14:42.953Z,15.02
2023-04-02T14:17:36.696Z,15.32
2023-04-02T14:20:17.277Z,15.27
2023-04-02T14:22:58.939Z,15.26
2023-04-02T14:25:39.021Z,15.19
2023-04-02T14:28:23.701Z,15.42
2023-04-02T14:31:30.042Z,15.63
2023-04-02T14:34:06.765Z,15.69
2023-04-02T14:36:42.101Z,15.89
2023-04-02T14:39:35.818Z,15.96
2023-04-02T14:42:09.363Z,16.27
2023-04-02T14:44:44.710Z,16.42
2023-04-02T14:47:21.721Z,16.50
2023-04-02T14:49:54.701Z,16.49
2023-04-02T14:52:24.315Z,16.62
2023-04-02T14:55:00.332Z,16.56
2023-04-02T14:57:53.580Z,16.45
2023-04-02T15:00:43.707Z,16.46
2023-04-02T15:03:24.377Z,16.41
2023-04-02T15:06:05.587Z,16.30
2023-04-02T15:09:06.656Z,16.15
2023-04-02T15:11:42.544Z,16.21
2023-04-02T15:14:35.121Z,16.17
2023-04-02T15:17:03.069Z,16.08
2023-04-02T15:19:36.565Z,16.08
2023-04-02T15:22:30.012Z,16.08
2023-04-02T15:25:19.047Z,16.09
2023-04-02T15:27:56.182Z,16.11
2023-04-02T15:30:30.151Z,16.08
2023-04-02T15:33:27.427Z,16.06
2023-04-02T15:36:03.917Z,16.05
2023-04-02T15:38:38.704Z,16.12
2023-04-02T15:41:23.800Z,16.05
2023-04-02T15:44:19.887Z,16.05
2023-04-02T15:46:56.570Z,16.02
2023-04-02T15:49:40.003Z,16.00
2023-04-02T15:52:36.927Z,16.00
2023-04-02T15:55:27.940Z,15.99
2023-04-02T15:58:23.028Z,15.97
2023-04-02T16:00:53.352Z,15.94
2023-04-02T16:03:40.837Z,15.94
2023-04-02T16:06:28.336Z,15.91
2023-04-02T16:09:24.231Z,15.89
2023-04-02T16:11:58.643Z,15.81
2023-04-02T16:14:30.842Z,15.78
2023-04-02T16:17:14.229Z,15.72
2023-04-02T16:19:58.838Z,15.67
2023-04-02T16:22:30.890Z,15.70
2023-04-02T16:25:17.204Z,15.65
2023-04-02T16:28:39.814Z,15.59
2023-04-02T16:31:32.968Z,15.56
2023-04-02T16:34:25.796Z,15.52
2023-04-02T16:37:17.831Z,15.45
2023-04-02T16:40:11.368Z,15.40
2023-04-02T16:42:53.728Z,15.36
2023-04-02T16:45:33.547Z,15.37
2023-04-02T16:48:03.704Z,15.40
2023-04-02T16:50:43.159Z,15.31
2023-04-02T16:53:54.500Z,15.24
2023-04-02T16:56:46.589Z,15.29
2023-04-02T16:59:16.704Z,15.26
2023-04-02T17:01:50.200Z,15.24
2023-04-02T17:04:46.645Z,15.24
2023-04-02T17:07:34.783Z,15.22
2023-04-02T17:10:19.056Z,15.21
2023-04-02T17:12:56.937Z,15.19
2023-04-02T17:15:32.898Z,15.11
2023-04-02T17:18:01.802Z,15.09
2023-04-02T17:20:32.964Z,15.00
2023-04-02T17:23:03.169Z,15.00
2023-04-02T17:25:39.822Z,15.01
2023-04-02T17:28:16.106Z,14.86
2023-04-02T17:30:51.184Z,14.90
2023-04-02T17:33:20.040Z,14.85
2023-04-02T17:36:00.831Z,14.77
2023-04-02T17:38:32.194Z,14.69
2023-04-02T17:41:35.177Z,14.65
2023-04-02T17:44:16.874Z,14.61
2023-04-02T17:47:03.340Z,14.53
2023-04-02T17:49:57.734Z,14.45
2023-04-02T17:53:00.185Z,14.42
2023-04-02T17:55:47.129Z,14.38
2023-04-02T17:58:46.806Z,14.32
2023-04-02T18:01:37.650Z,14.23
2023-04-02T18:04:36.365Z,14.20
2023-04-02T18:07:32.225Z,14.14
2023-04-02T18:10:28.761Z,14.07
2023-04-02T18:13:07.578Z,13.98
2023-04-02T18:15:55.688Z,13.95
2023-04-02T18:18:59.266Z,13.89
2023-04-02T18:21:37.996Z,13.85
2023-04-02T18:24:20.755Z,13.85
2023-04-02T18:27:08.738Z,13.74
2023-04-02T18:29:42.895Z,13.71
2023-04-02T18:32:39.348Z,13.69
2023-04-02T18:35:26.865Z,13.60
2023-04-02T18:38:09.151Z,13.55
2023-04-02T18:40:59.050Z,13.60
2023-04-02T18:43:42.085Z,13.57
2023-04-02T18:46:34.616Z,13.57
2023-04-02T18:49:23.579Z,13.46
2023-04-02T18:52:01.485Z,13.44
2023-04-02T18:54:47.875Z,13.53
2023-04-02T18:57:22.822Z,13.52
2023-04-02T19:00:06.675Z,13.52
2023-04-02T19:03:03.425Z,13.45
2023-04-02T19:06:20.723Z,13.40
2023-04-02T19:08:57.415Z,13.40
2023-04-02T19:11:31.935Z,13.37
2023-04-02T19:14:14.963Z,13.29
2023-04-02T19:16:44.042Z,13.34
2023-04-02T19:19:27.026Z,13.22
2023-04-02T19:22:04.080Z,13.16
2023-04-02T19:25:15.133Z,13.20
2023-04-02T19:28:19.060Z,13.16
2023-04-02T19:31:24.045Z,13.16
2023-04-02T19:34:26.483Z,13.15
2023-04-02T19:37:15.575Z,13.18
2023-04-02T19:40:17.532Z,13.11
2023-04-02T19:42:49.331Z,13.10
2023-04-02T19:45:37.274Z,13.13
2023-04-02T19:48:18.864Z,13.12
2023-04-02T19:50:47.845Z,13.09
2023-04-02T19:53:16.076Z,13.10
2023-04-02T19:55:46.223Z,13.15
2023-04-02T19:58:23.302Z,13.14
2023-04-02T20:00:51.605Z,13.27
2023-04-02T20:03:22.147Z,13.28
2023-04-02T20:05:55.108Z,13.18
2023-04-02T20:08:23.636Z,13.12
2023-04-02T20:10:53.599Z,13.13
2023-04-02T20:13:21.693Z,13.14
2023-04-02T20:15:51.428Z,13.04
2023-04-02T20:18:21.902Z,12.97
2023-04-02T20:20:51.087Z,12.98
2023-04-02T20:23:20.985Z,12.98
2023-04-02T20:25:58.089Z,12.95
2023-04-02T20:28:33.887Z,13.04
2023-04-02T20:31:07.100Z,12.87
2023-04-02T20:33:36.636Z,12.69
2023-04-02T20:36:08.040Z,12.64
2023-04-02T20:38:37.535Z,12.58
2023-04-02T20:41:23.504Z,12.46
2023-04-02T20:43:51.150Z,12.45
2023-04-02T20:46:18.825Z,12.46
2023-04-02T20:48:46.889Z,12.38
2023-04-02T20:51:17.333Z,12.31
2023-04-02T20:53:45.141Z,12.42
2023-04-02T20:56:15.620Z,12.49
2023-04-02T20:58:44.587Z,12.59
2023-04-02T21:01:13.023Z,12.53
2023-04-02T21:03:40.527Z,12.44
2023-04-02T21:06:16.804Z,12.48
2023-04-02T21:08:44.828Z,12.66
2023-04-02T21:11:13.077Z,12.64
2023-04-02T21:13:43.971Z,12.68
2023-04-02T21:16:17.204Z,12.68
2023-04-02T21:18:45.921Z,12.74
2023-04-02T21:21:14.053Z,12.82
2023-04-02T21:23:43.296Z,12.89
2023-04-02T21:26:16.608Z,12.85
2023-04-02T21:28:45.396Z,12.82
2023-04-02T21:31:16.470Z,12.91
2023-04-02T21:33:46.821Z,12.78
2023-04-02T21:36:19.884Z,12.89
2023-04-02T21:38:58.789Z,12.84
2023-04-02T21:41:27.510Z,12.74
2023-04-02T21:43:56.950Z,12.75
2023-04-02T21:46:27.306Z,12.61
2023-04-02T21:48:58.417Z,12.56
2023-04-02T21:51:28.271Z,12.61
2023-04-02T21:53:56.199Z,12.70
2023-04-02T21:56:29.116Z,12.68
2023-04-02T21:58:58.538Z,12.65
2023-04-02T22:01:28.134Z,12.63
2023-04-02T22:03:57.764Z,12.66
2023-04-02T22:06:28.080Z,12.47
2023-04-02T22:09:01.712Z,12.54
2023-04-02T22:11:32.009Z,12.34
2023-04-02T22:16:50.803Z,12.24
2023-04-02T22:19:18.368Z,12.18
2023-04-02T22:21:46.436Z,12.19
2023-04-02T22:24:16.336Z,12.16
2023-04-02T22:26:44.433Z,12.05
2023-04-02T22:29:11.915Z,12.02
2023-04-02T22:31:39.881Z,11.96
2023-04-02T22:34:07.382Z,11.97
2023-04-02T22:36:35.938Z,11.91
2023-04-02T22:39:05.695Z,11.92
2023-04-02T22:41:33.318Z,11.92
2023-04-02T22:44:01.383Z,11.82
2023-04-02T22:46:29.593Z,11.69
2023-04-02T22:48:57.497Z,11.66
2023-04-02T22:54:10.551Z,11.63
2023-04-02T22:56:37.945Z,11.66
2023-04-02T22:59:05.709Z,11.61
2023-04-02T23:01:35.843Z,11.70
2023-04-02T23:04:21.704Z,11.59
2023-04-02T23:06:49.007Z,11.64
2023-04-02T23:09:34.627Z,11.58
2023-04-02T23:12:02.046Z,11.54
2023-04-02T23:14:29.332Z,11.54
2023-04-02T23:16:56.646Z,11.50
2023-04-02T23:19:42.530Z,11.32
2023-04-02T23:22:28.336Z,11.34
2023-04-02T23:25:14.138Z,11.34
2023-04-02T23:27:41.843Z,11.31
2023-04-02T23:30:09.884Z,11.48
2023-04-02T23:33:09.252Z,11.49
2023-04-02T23:35:36.863Z,11.52
2023-04-02T23:38:04.253Z,11.42
2023-04-02T23:40:31.606Z,11.25
2023-04-02T23:42:58.963Z,11.35
2023-04-02T23:45:26.560Z,11.53
2023-04-02T23:47:54.143Z,11.54
2023-04-02T23:50:22.258Z,11.50
2023-04-02T23:52:50.147Z,11.45
2023-04-02T23:55:17.506Z,11.27
2023-04-02T23:57:44.935Z,11.25
